sensor_id;sensor_type;location;lat;lon;timestamp;pressure;altitude;pressure_sealevel;temperature;humidity
84356;BME280;74539;43.518;1.504;2024-03-22T00:02:07;100496.59;;;22.91;49.80
84356;BME280;74539;43.518;1.504;2024-03-22T00:04:34;100498.03;;;22.89;49.08
84356;BME280;74539;43.518;1.504;2024-03-22T00:06:59;100494.16;;;22.90;49.17
84356;BME280;74539;43.518;1.504;2024-03-22T00:09:25;100501.88;;;22.88;49.40
84356;BME280;74539;43.518;1.504;2024-03-22T00:11:51;100490.97;;;22.88;49.48
84356;BME280;74539;43.518;1.504;2024-03-22T00:14:16;100484.69;;;22.87;49.54
84356;BME280;74539;43.518;1.504;2024-03-22T00:16:42;100487.75;;;22.85;49.46
84356;BME280;74539;43.518;1.504;2024-03-22T00:19:08;100492.72;;;22.83;49.53
84356;BME280;74539;43.518;1.504;2024-03-22T00:21:33;100491.59;;;22.84;48.58
84356;BME280;74539;43.518;1.504;2024-03-22T00:23:59;100487.59;;;22.82;49.35
84356;BME280;74539;43.518;1.504;2024-03-22T00:26:26;100498.50;;;22.82;48.95
84356;BME280;74539;43.518;1.504;2024-03-22T00:28:52;100498.50;;;22.82;49.40
84356;BME280;74539;43.518;1.504;2024-03-22T00:31:18;100497.69;;;22.81;49.08
84356;BME280;74539;43.518;1.504;2024-03-22T00:33:44;100493.66;;;22.79;49.05
84356;BME280;74539;43.518;1.504;2024-03-22T00:36:10;100485.78;;;22.77;49.24
84356;BME280;74539;43.518;1.504;2024-03-22T00:38:36;100483.41;;;22.76;48.54
84356;BME280;74539;43.518;1.504;2024-03-22T00:41:01;100488.84;;;22.76;49.30
84356;BME280;74539;43.518;1.504;2024-03-22T00:43:27;100489.31;;;22.78;49.37
84356;BME280;74539;43.518;1.504;2024-03-22T00:45:53;100501.34;;;22.77;48.63
84356;BME280;74539;43.518;1.504;2024-03-22T00:48:19;100488.84;;;22.76;48.24
84356;BME280;74539;43.518;1.504;2024-03-22T00:50:44;100484.03;;;22.73;49.50
84356;BME280;74539;43.518;1.504;2024-03-22T00:53:10;100488.66;;;22.72;48.86
84356;BME280;74539;43.518;1.504;2024-03-22T00:55:37;100481.31;;;22.73;49.24
84356;BME280;74539;43.518;1.504;2024-03-22T00:58:02;100484.34;;;22.71;49.31
84356;BME280;74539;43.518;1.504;2024-03-22T01:00:28;100484.03;;;22.73;48.70
84356;BME280;74539;43.518;1.504;2024-03-22T01:02:54;100475.38;;;22.71;48.81
84356;BME280;74539;43.518;1.504;2024-03-22T01:05:19;100476.78;;;22.68;49.36
84356;BME280;74539;43.518;1.504;2024-03-22T01:07:45;100468.94;;;22.67;48.81
84356;BME280;74539;43.518;1.504;2024-03-22T01:10:11;100477.59;;;22.69;49.34
84356;BME280;74539;43.518;1.504;2024-03-22T01:12:38;100481.44;;;22.68;49.04
84356;BME280;74539;43.518;1.504;2024-03-22T01:15:05;100478.22;;;22.66;49.26
84356;BME280;74539;43.518;1.504;2024-03-22T01:17:31;100480.66;;;22.67;49.39
84356;BME280;74539;43.518;1.504;2024-03-22T01:19:57;100477.44;;;22.65;48.35
84356;BME280;74539;43.518;1.504;2024-03-22T01:22:23;100479.34;;;22.64;49.22
84356;BME280;74539;43.518;1.504;2024-03-22T01:24:49;100482.06;;;22.64;48.86
84356;BME280;74539;43.518;1.504;2024-03-22T01:27:14;100473.41;;;22.62;48.45
84356;BME280;74539;43.518;1.504;2024-03-22T01:29:40;100465.88;;;22.59;48.88
84356;BME280;74539;43.518;1.504;2024-03-22T01:32:06;100463.63;;;22.61;49.18
84356;BME280;74539;43.518;1.504;2024-03-22T01:34:32;100454.97;;;22.59;48.59
84356;BME280;74539;43.518;1.504;2024-03-22T01:36:58;100455.47;;;22.61;48.45
84356;BME280;74539;43.518;1.504;2024-03-22T01:39:23;100454.50;;;22.57;48.62
84356;BME280;74539;43.518;1.504;2024-03-22T01:41:52;100445.22;;;22.58;48.72
84356;BME280;74539;43.518;1.504;2024-03-22T01:44:18;100449.06;;;22.57;49.03
84356;BME280;74539;43.518;1.504;2024-03-22T01:46:48;100445.84;;;22.55;49.04
84356;BME280;74539;43.518;1.504;2024-03-22T01:49:15;100455.59;;;22.56;48.66
84356;BME280;74539;43.518;1.504;2024-03-22T01:51:42;100448.06;;;22.53;48.57
84356;BME280;74539;43.518;1.504;2024-03-22T01:54:11;100455.13;;;22.54;48.30
84356;BME280;74539;43.518;1.504;2024-03-22T01:56:37;100448.06;;;22.53;49.00
84356;BME280;74539;43.518;1.504;2024-03-22T01:59:04;100449.50;;;22.51;48.45
84356;BME280;74539;43.518;1.504;2024-03-22T02:01:31;100440.22;;;22.52;48.62
84356;BME280;74539;43.518;1.504;2024-03-22T02:03:56;100436.19;;;22.49;48.96
84356;BME280;74539;43.518;1.504;2024-03-22T02:06:22;100434.91;;;22.47;48.47
84356;BME280;74539;43.518;1.504;2024-03-22T02:08:48;100431.38;;;22.46;48.74
84356;BME280;74539;43.518;1.504;2024-03-22T02:11:13;100436.19;;;22.49;48.21
84356;BME280;74539;43.518;1.504;2024-03-22T02:13:39;100425.31;;;22.49;48.13
84356;BME280;74539;43.518;1.504;2024-03-22T02:16:05;100427.06;;;22.45;48.66
84356;BME280;74539;43.518;1.504;2024-03-22T02:18:31;100419.69;;;22.46;48.80
84356;BME280;74539;43.518;1.504;2024-03-22T02:20:57;100408.16;;;22.40;48.79
84356;BME280;74539;43.518;1.504;2024-03-22T02:23:35;100415.69;;;22.43;49.14
84356;BME280;74539;43.518;1.504;2024-03-22T02:26:02;100405.44;;;22.40;48.83
84356;BME280;74539;43.518;1.504;2024-03-22T02:28:28;100404.94;;;22.38;48.48
84356;BME280;74539;43.518;1.504;2024-03-22T02:30:54;100402.19;;;22.38;48.93
84356;BME280;74539;43.518;1.504;2024-03-22T02:33:20;100395.97;;;22.37;48.98
84356;BME280;74539;43.518;1.504;2024-03-22T02:35:49;100389.72;;;22.37;48.63
84356;BME280;74539;43.518;1.504;2024-03-22T02:38:15;100385.88;;;22.38;48.32
84356;BME280;74539;43.518;1.504;2024-03-22T02:40:45;100377.19;;;22.36;48.82
84356;BME280;74539;43.518;1.504;2024-03-22T02:43:12;100376.09;;;22.37;48.97
84356;BME280;74539;43.518;1.504;2024-03-22T02:45:38;100370.50;;;22.33;48.52
84356;BME280;74539;43.518;1.504;2024-03-22T02:48:04;100376.41;;;22.35;47.98
84356;BME280;74539;43.518;1.504;2024-03-22T02:50:33;100357.97;;;22.32;48.52
84356;BME280;74539;43.518;1.504;2024-03-22T02:52:59;100359.13;;;22.31;47.88
84356;BME280;74539;43.518;1.504;2024-03-22T02:55:25;100365.34;;;22.32;48.67
84356;BME280;74539;43.518;1.504;2024-03-22T02:57:51;100362.63;;;22.32;48.41
84356;BME280;74539;43.518;1.504;2024-03-22T03:00:17;100353.66;;;22.31;47.78
84356;BME280;74539;43.518;1.504;2024-03-22T03:02:44;100351.25;;;22.30;47.93
84356;BME280;74539;43.518;1.504;2024-03-22T03:05:09;100351.56;;;22.28;48.58
84356;BME280;74539;43.518;1.504;2024-03-22T03:07:35;100346.94;;;22.29;48.30
84356;BME280;74539;43.518;1.504;2024-03-22T03:10:01;100340.19;;;22.26;49.13
84356;BME280;74539;43.518;1.504;2024-03-22T03:12:26;100336.69;;;22.26;48.42
84356;BME280;74539;43.518;1.504;2024-03-22T03:14:52;100332.34;;;22.25;47.74
84356;BME280;74539;43.518;1.504;2024-03-22T03:17:18;100341.00;;;22.27;47.84
84356;BME280;74539;43.518;1.504;2024-03-22T03:19:44;100327.38;;;22.27;48.72
84356;BME280;74539;43.518;1.504;2024-03-22T03:22:10;100331.56;;;22.24;48.50
84356;BME280;74539;43.518;1.504;2024-03-22T03:24:36;100325.28;;;22.24;47.79
84356;BME280;74539;43.518;1.504;2024-03-22T03:27:01;100323.69;;;22.23;48.44
84356;BME280;74539;43.518;1.504;2024-03-22T03:29:28;100328.66;;;22.21;48.22
84356;BME280;74539;43.518;1.504;2024-03-22T03:31:53;100335.22;;;22.20;48.56
84356;BME280;74539;43.518;1.504;2024-03-22T03:34:19;100336.81;;;22.21;48.54
84356;BME280;74539;43.518;1.504;2024-03-22T03:36:46;100327.38;;;22.18;48.19
84356;BME280;74539;43.518;1.504;2024-03-22T03:39:12;100328.97;;;22.19;47.67
84356;BME280;74539;43.518;1.504;2024-03-22T03:41:37;100333.63;;;22.18;49.13
84356;BME280;74539;43.518;1.504;2024-03-22T03:44:03;100328.78;;;22.15;48.35
84356;BME280;74539;43.518;1.504;2024-03-22T03:46:29;100336.94;;;22.15;47.86
84356;BME280;74539;43.518;1.504;2024-03-22T03:48:54;100336.94;;;22.15;48.01
84356;BME280;74539;43.518;1.504;2024-03-22T03:51:20;100326.19;;;22.10;48.51
84356;BME280;74539;43.518;1.504;2024-03-22T03:53:46;100337.25;;;22.14;48.76
84356;BME280;74539;43.518;1.504;2024-03-22T03:56:11;100340.28;;;22.12;47.96
84356;BME280;74539;43.518;1.504;2024-03-22T03:58:37;100330.03;;;22.09;48.36
84356;BME280;74539;43.518;1.504;2024-03-22T04:01:09;100338.19;;;22.09;48.20
84356;BME280;74539;43.518;1.504;2024-03-22T04:03:35;100334.34;;;22.10;48.31
84356;BME280;74539;43.518;1.504;2024-03-22T04:06:01;100345.56;;;22.09;47.99
84356;BME280;74539;43.518;1.504;2024-03-22T04:08:28;100343.94;;;22.08;48.13
84356;BME280;74539;43.518;1.504;2024-03-22T04:10:55;100344.75;;;22.08;47.89
84356;BME280;74539;43.518;1.504;2024-03-22T04:13:24;100347.47;;;22.08;47.65
84356;BME280;74539;43.518;1.504;2024-03-22T04:15:50;100354.81;;;22.08;48.27
84356;BME280;74539;43.518;1.504;2024-03-22T04:18:15;100336.25;;;22.01;48.58
84356;BME280;74539;43.518;1.504;2024-03-22T04:20:41;100350.81;;;22.05;48.22
84356;BME280;74539;43.518;1.504;2024-03-22T04:23:08;100353.84;;;22.04;47.72
84356;BME280;74539;43.518;1.504;2024-03-22T04:25:34;100346.00;;;22.02;47.73
84356;BME280;74539;43.518;1.504;2024-03-22T04:27:59;100344.91;;;22.03;48.11
84356;BME280;74539;43.518;1.504;2024-03-22T04:30:25;100351.94;;;22.04;47.85
84356;BME280;74539;43.518;1.504;2024-03-22T04:32:51;100352.22;;;22.03;48.79
84356;BME280;74539;43.518;1.504;2024-03-22T04:35:16;100350.47;;;21.98;48.04
84356;BME280;74539;43.518;1.504;2024-03-22T04:37:42;100352.06;;;21.99;48.42
84356;BME280;74539;43.518;1.504;2024-03-22T04:40:08;100355.91;;;21.98;48.03
84356;BME280;74539;43.518;1.504;2024-03-22T04:42:35;100350.78;;;21.96;48.64
84356;BME280;74539;43.518;1.504;2024-03-22T04:45:01;100354.78;;;21.99;47.80
84356;BME280;74539;43.518;1.504;2024-03-22T04:47:26;100354.31;;;21.97;48.26
84356;BME280;74539;43.518;1.504;2024-03-22T04:49:52;100357.03;;;21.97;47.91
84356;BME280;74539;43.518;1.504;2024-03-22T04:52:18;100361.97;;;21.95;48.39
84356;BME280;74539;43.518;1.504;2024-03-22T04:54:44;100359.25;;;21.95;48.16
84356;BME280;74539;43.518;1.504;2024-03-22T04:57:09;100357.16;;;21.92;47.85
84356;BME280;74539;43.518;1.504;2024-03-22T04:59:35;100353.31;;;21.93;48.54
84356;BME280;74539;43.518;1.504;2024-03-22T05:02:00;100351.72;;;21.92;48.25
84356;BME280;74539;43.518;1.504;2024-03-22T05:04:26;100344.69;;;21.91;48.27
84356;BME280;74539;43.518;1.504;2024-03-22T05:06:52;100340.34;;;21.90;47.93
84356;BME280;74539;43.518;1.504;2024-03-22T05:09:17;100344.69;;;21.91;48.16
84356;BME280;74539;43.518;1.504;2024-03-22T05:11:43;100335.53;;;21.87;48.05
84356;BME280;74539;43.518;1.504;2024-03-22T05:14:08;100341.13;;;21.90;47.70
84356;BME280;74539;43.518;1.504;2024-03-22T05:16:34;100332.81;;;21.87;47.43
84356;BME280;74539;43.518;1.504;2024-03-22T05:19:00;100333.94;;;21.86;47.34
84356;BME280;74539;43.518;1.504;2024-03-22T05:21:26;100329.13;;;21.83;48.10
84356;BME280;74539;43.518;1.504;2024-03-22T05:23:51;100330.72;;;21.84;47.68
84356;BME280;74539;43.518;1.504;2024-03-22T05:26:17;100328.00;;;21.84;48.22
84356;BME280;74539;43.518;1.504;2024-03-22T05:28:46;100317.75;;;21.81;47.89
84356;BME280;74539;43.518;1.504;2024-03-22T05:31:11;100323.69;;;21.83;48.18
84356;BME280;74539;43.518;1.504;2024-03-22T05:33:37;100320.97;;;21.83;48.09
84356;BME280;74539;43.518;1.504;2024-03-22T05:36:03;100315.03;;;21.81;48.37
84356;BME280;74539;43.518;1.504;2024-03-22T05:38:28;100310.72;;;21.80;47.45
84356;BME280;74539;43.518;1.504;2024-03-22T05:40:54;100317.75;;;21.81;47.45
84356;BME280;74539;43.518;1.504;2024-03-22T05:43:20;100314.56;;;21.79;47.51
84356;BME280;74539;43.518;1.504;2024-03-22T05:45:45;100311.00;;;21.78;48.39
84356;BME280;74539;43.518;1.504;2024-03-22T05:48:11;100305.91;;;21.77;48.42
84356;BME280;74539;43.518;1.504;2024-03-22T05:50:36;100309.75;;;21.76;47.83
84356;BME280;74539;43.518;1.504;2024-03-22T05:53:02;100302.38;;;21.76;47.37
84356;BME280;74539;43.518;1.504;2024-03-22T05:55:28;100297.56;;;21.73;48.41
84356;BME280;74539;43.518;1.504;2024-03-22T05:57:56;100292.59;;;21.75;48.38
84356;BME280;74539;43.518;1.504;2024-03-22T06:00:22;100292.44;;;21.71;48.33
84356;BME280;74539;43.518;1.504;2024-03-22T06:02:47;100294.69;;;21.69;48.21
84356;BME280;74539;43.518;1.504;2024-03-22T06:05:13;100297.06;;;21.71;47.31
84356;BME280;74539;43.518;1.504;2024-03-22T06:07:39;100300.13;;;21.69;47.77
84356;BME280;74539;43.518;1.504;2024-03-22T06:10:08;100302.50;;;21.71;48.10
84356;BME280;74539;43.518;1.504;2024-03-22T06:12:35;100303.94;;;21.68;47.36
84356;BME280;74539;43.518;1.504;2024-03-22T06:15:02;100299.28;;;21.69;47.83
84356;BME280;74539;43.518;1.504;2024-03-22T06:17:32;100294.47;;;21.66;47.48
84356;BME280;74539;43.518;1.504;2024-03-22T06:19:58;100296.09;;;21.67;48.31
84356;BME280;74539;43.518;1.504;2024-03-22T06:22:25;100285.53;;;21.65;47.77
84356;BME280;74539;43.518;1.504;2024-03-22T06:24:50;100293.69;;;21.65;47.39
84356;BME280;74539;43.518;1.504;2024-03-22T06:27:16;100297.53;;;21.64;47.69
84356;BME280;74539;43.518;1.504;2024-03-22T06:29:42;100292.09;;;21.64;47.59
84356;BME280;74539;43.518;1.504;2024-03-22T06:32:08;100290.00;;;21.61;48.03
84356;BME280;74539;43.518;1.504;2024-03-22T06:34:33;100285.19;;;21.58;47.69
84356;BME280;74539;43.518;1.504;2024-03-22T06:37:00;100306.78;;;21.63;47.50
84356;BME280;74539;43.518;1.504;2024-03-22T06:39:25;100306.78;;;21.63;47.83
84356;BME280;74539;43.518;1.504;2024-03-22T06:41:51;100310.63;;;21.62;47.35
84356;BME280;74539;43.518;1.504;2024-03-22T06:44:17;100312.22;;;21.63;48.00
84356;BME280;74539;43.518;1.504;2024-03-22T06:46:42;100315.25;;;21.62;47.95
84356;BME280;74539;43.518;1.504;2024-03-22T06:49:08;100326.13;;;21.62;48.00
84356;BME280;74539;43.518;1.504;2024-03-22T06:51:34;100321.00;;;21.60;47.90
84356;BME280;74539;43.518;1.504;2024-03-22T06:53:59;100322.63;;;21.61;47.82
84356;BME280;74539;43.518;1.504;2024-03-22T06:56:25;100323.72;;;21.60;47.23
84356;BME280;74539;43.518;1.504;2024-03-22T06:58:51;100320.19;;;21.60;47.52
84356;BME280;74539;43.518;1.504;2024-03-22T07:01:16;100323.09;;;21.63;47.76
84356;BME280;74539;43.518;1.504;2024-03-22T07:03:42;100326.31;;;21.65;47.16
84356;BME280;74539;43.518;1.504;2024-03-22T07:06:11;100328.41;;;21.68;47.92
84356;BME280;74539;43.518;1.504;2024-03-22T07:08:36;100318.53;;;21.72;47.49
84356;BME280;74539;43.518;1.504;2024-03-22T07:11:05;100319.50;;;21.77;47.22
84356;BME280;74539;43.518;1.504;2024-03-22T07:13:32;100312.31;;;21.81;47.15
84356;BME280;74539;43.518;1.504;2024-03-22T07:15:57;100316.50;;;21.87;47.07
84356;BME280;74539;43.518;1.504;2024-03-22T07:18:23;100308.69;;;21.94;47.57
84356;BME280;74539;43.518;1.504;2024-03-22T07:20:48;100307.44;;;22.00;46.80
84356;BME280;74539;43.518;1.504;2024-03-22T07:23:14;100308.06;;;22.06;47.13
84356;BME280;74539;43.518;1.504;2024-03-22T07:25:40;100309.22;;;22.13;47.46
84356;BME280;74539;43.518;1.504;2024-03-22T07:28:08;100306.41;;;22.18;47.03
84356;BME280;74539;43.518;1.504;2024-03-22T07:30:33;100307.84;;;22.25;46.88
84356;BME280;74539;43.518;1.504;2024-03-22T07:33:00;100316.34;;;22.32;46.64
84356;BME280;74539;43.518;1.504;2024-03-22T07:35:26;100311.56;;;22.37;46.57
84356;BME280;74539;43.518;1.504;2024-03-22T07:37:53;100319.25;;;22.44;45.65
84356;BME280;74539;43.518;1.504;2024-03-22T07:40:18;100321.84;;;22.49;46.48
84356;BME280;74539;43.518;1.504;2024-03-22T07:42:45;100331.47;;;22.55;46.45
84356;BME280;74539;43.518;1.504;2024-03-22T07:45:11;100325.38;;;22.58;46.04
84356;BME280;74539;43.518;1.504;2024-03-22T07:47:37;100321.38;;;22.64;45.74
84356;BME280;74539;43.518;1.504;2024-03-22T07:50:04;100326.50;;;22.75;46.01
84356;BME280;74539;43.518;1.504;2024-03-22T07:52:30;100329.09;;;22.80;45.71
84356;BME280;74539;43.518;1.504;2024-03-22T07:54:55;100329.88;;;22.89;46.01
84356;BME280;74539;43.518;1.504;2024-03-22T07:57:21;100322.38;;;22.95;45.61
84356;BME280;74539;43.518;1.504;2024-03-22T07:59:48;100319.50;;;23.00;46.17
84356;BME280;74539;43.518;1.504;2024-03-22T08:02:14;100323.50;;;23.02;45.18
84356;BME280;74539;43.518;1.504;2024-03-22T08:04:39;100333.44;;;23.07;46.18
84356;BME280;74539;43.518;1.504;2024-03-22T08:07:05;100334.72;;;23.09;45.86
84356;BME280;74539;43.518;1.504;2024-03-22T08:09:31;100332.00;;;23.09;46.12
84356;BME280;74539;43.518;1.504;2024-03-22T08:11:56;100334.09;;;23.13;45.64
84356;BME280;74539;43.518;1.504;2024-03-22T08:14:23;100332.66;;;23.15;45.42
84356;BME280;74539;43.518;1.504;2024-03-22T08:16:48;100326.84;;;23.17;46.08
84356;BME280;74539;43.518;1.504;2024-03-22T08:19:14;100321.09;;;23.18;45.71
84356;BME280;74539;43.518;1.504;2024-03-22T08:21:40;100323.97;;;23.22;45.59
84356;BME280;74539;43.518;1.504;2024-03-22T08:24:06;100324.47;;;23.24;46.26
84356;BME280;74539;43.518;1.504;2024-03-22T08:26:31;100322.19;;;23.26;45.51
84356;BME280;74539;43.518;1.504;2024-03-22T08:28:57;100327.00;;;23.29;45.73
84356;BME280;74539;43.518;1.504;2024-03-22T08:31:22;100328.63;;;23.30;45.70
84356;BME280;74539;43.518;1.504;2024-03-22T08:33:51;100320.44;;;23.30;46.19
84356;BME280;74539;43.518;1.504;2024-03-22T08:36:17;100318.66;;;23.34;45.76
84356;BME280;74539;43.518;1.504;2024-03-22T08:38:43;100310.78;;;23.32;46.02
84356;BME280;74539;43.518;1.504;2024-03-22T08:41:08;100316.44;;;23.36;46.21
84356;BME280;74539;43.518;1.504;2024-03-22T08:43:34;100323.47;;;23.37;46.36
84356;BME280;74539;43.518;1.504;2024-03-22T08:46:00;100327.78;;;23.38;46.06
84356;BME280;74539;43.518;1.504;2024-03-22T08:48:25;100327.16;;;23.41;45.99
84356;BME280;74539;43.518;1.504;2024-03-22T08:50:51;100323.13;;;23.39;46.30
84356;BME280;74539;43.518;1.504;2024-03-22T08:53:17;100321.69;;;23.41;46.84
84356;BME280;74539;43.518;1.504;2024-03-22T08:55:47;100331.50;;;23.42;46.22
84356;BME280;74539;43.518;1.504;2024-03-22T08:58:13;100324.41;;;23.41;46.63
84356;BME280;74539;43.518;1.504;2024-03-22T09:00:44;100321.03;;;23.44;46.37
84356;BME280;74539;43.518;1.504;2024-03-22T09:03:09;100326.50;;;23.44;47.08
84356;BME280;74539;43.518;1.504;2024-03-22T09:05:35;100312.41;;;23.42;46.70
84356;BME280;74539;43.518;1.504;2024-03-22T09:08:02;100323.31;;;23.42;47.22
84356;BME280;74539;43.518;1.504;2024-03-22T09:10:29;100317.50;;;23.44;47.02
84356;BME280;74539;43.518;1.504;2024-03-22T09:12:55;100324.56;;;23.45;47.38
84356;BME280;74539;43.518;1.504;2024-03-22T09:15:21;100324.91;;;23.43;47.00
84356;BME280;74539;43.518;1.504;2024-03-22T09:17:47;100322.19;;;23.43;46.73
84356;BME280;74539;43.518;1.504;2024-03-22T09:20:13;100325.69;;;23.44;47.37
84356;BME280;74539;43.518;1.504;2024-03-22T09:22:39;100313.50;;;23.41;47.19
84356;BME280;74539;43.518;1.504;2024-03-22T09:25:05;100309.19;;;23.40;46.87
84356;BME280;74539;43.518;1.504;2024-03-22T09:27:32;100308.41;;;23.40;46.83
84356;BME280;74539;43.518;1.504;2024-03-22T09:29:58;100313.06;;;23.39;47.15
84356;BME280;74539;43.518;1.504;2024-03-22T09:32:23;100305.97;;;23.38;46.57
84356;BME280;74539;43.518;1.504;2024-03-22T09:34:49;100306.78;;;23.39;47.28
84356;BME280;74539;43.518;1.504;2024-03-22T09:37:15;100307.91;;;23.38;47.06
84356;BME280;74539;43.518;1.504;2024-03-22T09:39:41;100302.78;;;23.36;46.79
84356;BME280;74539;43.518;1.504;2024-03-22T09:42:06;100307.41;;;23.36;47.25
84356;BME280;74539;43.518;1.504;2024-03-22T09:44:33;100301.16;;;23.35;47.45
84356;BME280;74539;43.518;1.504;2024-03-22T09:47:00;100300.72;;;23.33;46.81
84356;BME280;74539;43.518;1.504;2024-03-22T09:49:27;100291.72;;;23.32;47.29
84356;BME280;74539;43.518;1.504;2024-03-22T09:51:53;100295.25;;;23.33;47.25
84356;BME280;74539;43.518;1.504;2024-03-22T09:54:18;100294.44;;;23.32;47.47
84356;BME280;74539;43.518;1.504;2024-03-22T09:56:47;100291.41;;;23.34;47.65
84356;BME280;74539;43.518;1.504;2024-03-22T09:59:13;100299.09;;;23.32;47.83
84356;BME280;74539;43.518;1.504;2024-03-22T10:01:40;100285.81;;;23.30;47.14
84356;BME280;74539;43.518;1.504;2024-03-22T10:04:06;100288.84;;;23.29;47.32
84356;BME280;74539;43.518;1.504;2024-03-22T10:06:34;100288.03;;;23.28;47.25
84356;BME280;74539;43.518;1.504;2024-03-22T10:09:00;100286.44;;;23.27;47.53
84356;BME280;74539;43.518;1.504;2024-03-22T10:11:27;100291.09;;;23.27;48.16
84356;BME280;74539;43.518;1.504;2024-03-22T10:13:53;100285.66;;;23.27;48.08
84356;BME280;74539;43.518;1.504;2024-03-22T10:16:21;100285.16;;;23.25;47.93
84356;BME280;74539;43.518;1.504;2024-03-22T10:18:47;100285.97;;;23.25;47.76
84356;BME280;74539;43.518;1.504;2024-03-22T10:21:17;100281.94;;;23.23;47.86
84356;BME280;74539;43.518;1.504;2024-03-22T10:23:43;100283.56;;;23.24;48.31
84356;BME280;74539;43.518;1.504;2024-03-22T10:26:10;100281.94;;;23.23;47.61
84356;BME280;74539;43.518;1.504;2024-03-22T10:28:35;100277.63;;;23.22;47.95
84356;BME280;74539;43.518;1.504;2024-03-22T10:31:01;100277.63;;;23.22;47.49
84356;BME280;74539;43.518;1.504;2024-03-22T10:33:29;100265.94;;;23.21;47.94
84356;BME280;74539;43.518;1.504;2024-03-22T10:35:54;100270.59;;;23.21;47.67
84356;BME280;74539;43.518;1.504;2024-03-22T10:38:22;100259.19;;;23.19;48.01
84356;BME280;74539;43.518;1.504;2024-03-22T10:40:48;100262.72;;;23.19;48.37
84356;BME280;74539;43.518;1.504;2024-03-22T10:43:14;100264.31;;;23.20;47.95
84356;BME280;74539;43.518;1.504;2024-03-22T10:45:41;100261.94;;;23.19;47.68
84356;BME280;74539;43.518;1.504;2024-03-22T10:48:11;100259.19;;;23.19;47.77
84356;BME280;74539;43.518;1.504;2024-03-22T10:50:41;100258.41;;;23.18;48.29
84356;BME280;74539;43.518;1.504;2024-03-22T10:53:11;100252.13;;;23.18;48.43
84356;BME280;74539;43.518;1.504;2024-03-22T10:55:42;100240.78;;;23.16;47.89
84356;BME280;74539;43.518;1.504;2024-03-22T10:58:15;100243.16;;;23.17;47.71
84356;BME280;74539;43.518;1.504;2024-03-22T11:00:41;100235.31;;;23.16;47.97
84356;BME280;74539;43.518;1.504;2024-03-22T11:03:09;100236.44;;;23.15;47.90
84356;BME280;74539;43.518;1.504;2024-03-22T11:05:34;100233.69;;;23.15;48.60
84356;BME280;74539;43.518;1.504;2024-03-22T11:08:09;100230.97;;;23.15;48.84
84356;BME280;74539;43.518;1.504;2024-03-22T11:10:35;100229.88;;;23.16;48.55
84356;BME280;74539;43.518;1.504;2024-03-22T11:13:07;100222.34;;;23.13;48.51
84356;BME280;74539;43.518;1.504;2024-03-22T11:15:34;100229.06;;;23.15;48.57
84356;BME280;74539;43.518;1.504;2024-03-22T11:18:00;100221.22;;;23.14;48.06
84356;BME280;74539;43.518;1.504;2024-03-22T11:20:29;100218.47;;;23.14;48.56
84356;BME280;74539;43.518;1.504;2024-03-22T11:22:56;100214.16;;;23.13;48.68
84356;BME280;74539;43.518;1.504;2024-03-22T11:25:22;100212.22;;;23.13;48.75
84356;BME280;74539;43.518;1.504;2024-03-22T11:27:47;100210.31;;;23.14;49.00
84356;BME280;74539;43.518;1.504;2024-03-22T11:30:17;100210.31;;;23.14;48.39
84356;BME280;74539;43.518;1.504;2024-03-22T11:32:43;100210.31;;;23.14;48.79
84356;BME280;74539;43.518;1.504;2024-03-22T11:35:13;100213.03;;;23.14;48.30
84356;BME280;74539;43.518;1.504;2024-03-22T11:37:40;100203.25;;;23.13;49.54
84356;BME280;74539;43.518;1.504;2024-03-22T11:40:08;100198.59;;;23.13;48.80
84356;BME280;74539;43.518;1.504;2024-03-22T11:42:37;100193.94;;;23.14;49.73
84356;BME280;74539;43.518;1.504;2024-03-22T11:45:04;100186.91;;;23.13;49.58
84356;BME280;74539;43.518;1.504;2024-03-22T11:47:33;100185.78;;;23.14;49.67
84356;BME280;74539;43.518;1.504;2024-03-22T11:49:59;100186.44;;;23.11;49.38
84356;BME280;74539;43.518;1.504;2024-03-22T11:52:28;100186.91;;;23.13;49.22
84356;BME280;74539;43.518;1.504;2024-03-22T11:54:54;100181.47;;;23.13;49.16
84356;BME280;74539;43.518;1.504;2024-03-22T11:57:20;100176.31;;;23.11;49.20
84356;BME280;74539;43.518;1.504;2024-03-22T11:59:46;100174.88;;;23.14;49.85
84356;BME280;74539;43.518;1.504;2024-03-22T12:02:12;100167.34;;;23.11;49.42
84356;BME280;74539;43.518;1.504;2024-03-22T12:04:56;100168.94;;;23.12;49.81
84356;BME280;74539;43.518;1.504;2024-03-22T12:07:22;100158.84;;;23.12;49.36
84356;BME280;74539;43.518;1.504;2024-03-22T12:09:49;100158.03;;;23.12;49.04
84356;BME280;74539;43.518;1.504;2024-03-22T12:12:14;100152.59;;;23.12;50.09
84356;BME280;74539;43.518;1.504;2024-03-22T12:14:40;100148.75;;;23.13;50.17
84356;BME280;74539;43.518;1.504;2024-03-22T12:17:06;100148.75;;;23.13;49.75
84356;BME280;74539;43.518;1.504;2024-03-22T12:19:33;100143.31;;;23.13;50.01
84356;BME280;74539;43.518;1.504;2024-03-22T12:21:59;100138.94;;;23.12;49.56
84356;BME280;74539;43.518;1.504;2024-03-22T12:24:25;100131.59;;;23.12;49.88
84356;BME280;74539;43.518;1.504;2024-03-22T12:26:51;100133.19;;;23.13;49.70
84356;BME280;74539;43.518;1.504;2024-03-22T12:29:18;100127.59;;;23.09;49.88
84356;BME280;74539;43.518;1.504;2024-03-22T12:31:44;100127.75;;;23.13;49.98
84356;BME280;74539;43.518;1.504;2024-03-22T12:34:10;100116.84;;;23.13;49.68
84356;BME280;74539;43.518;1.504;2024-03-22T12:36:36;100110.13;;;23.11;49.74
84356;BME280;74539;43.518;1.504;2024-03-22T12:39:02;100112.19;;;23.14;50.02
84356;BME280;74539;43.518;1.504;2024-03-22T12:41:28;100102.06;;;23.14;50.25
84356;BME280;74539;43.518;1.504;2024-03-22T12:43:55;100102.88;;;23.15;49.84
84356;BME280;74539;43.518;1.504;2024-03-22T12:46:21;100097.41;;;23.15;50.25